Terminal Aerodrome Forecast
Issued by NWS Cleveland, OH

Home | Current Version | Previous Version | Text Only | Print | Product List | Glossary Off
Versions: 1 2 3 4 5 6 7 8 9 10 11 12 13 14 15 16 17 18 19 20 21

842
FTUS41 KCLE 271721
TAFMFD
TAF
KMFD 271721Z 2718/2818 22008KT P6SM BKN018 BKN025
     FM272100 22008KT P6SM SCT025 BKN050
     FM280100 VRB03KT P6SM -SHRA BKN025 OVC050
     FM280400 VRB03KT 5SM -RA BR OVC012
     FM280800 VRB04KT 3SM -RA BR OVC007
     FM281300 35008KT 4SM BR OVC007=

USA.gov is the U.S. government's official web portal to all federal, state and local government web resources and services.